createdAt,value
2023-04-26T00:00:30.302Z,101735.03
2023-04-26T00:03:00.091Z,101744.81
2023-04-26T00:05:27.258Z,101744.84
2023-04-26T00:07:54.340Z,101753.72
2023-04-26T00:10:21.075Z,101755.50
2023-04-26T00:12:47.627Z,101750.13
2023-04-26T00:15:14.182Z,101753.72
2023-04-26T00:17:41.218Z,101746.59
2023-04-26T00:20:15.797Z,101751.88
2023-04-26T00:22:43.638Z,101749.22
2023-04-26T00:25:11.221Z,101744.78
2023-04-26T00:27:37.770Z,101747.38
2023-04-26T00:30:04.801Z,101748.28
2023-04-26T00:32:32.013Z,101742.97
2023-04-26T00:34:58.626Z,101750.09
2023-04-26T00:37:25.191Z,101745.63
2023-04-26T00:39:51.844Z,101747.41
2023-04-26T00:42:19.456Z,101735.00
2023-04-26T00:44:46.090Z,101736.78
2023-04-26T00:47:12.665Z,101735.88
2023-04-26T00:49:39.295Z,101737.63
2023-04-26T00:52:06.110Z,101730.44
2023-04-26T00:54:32.663Z,101737.56
2023-04-26T00:56:59.607Z,101741.13
2023-04-26T00:59:26.511Z,101737.56
2023-04-26T01:01:53.389Z,101731.34
2023-04-26T01:04:20.325Z,101724.22
2023-04-26T01:06:47.416Z,101728.69
2023-04-26T01:09:18.363Z,101726.84
2023-04-26T01:11:44.928Z,101739.31
2023-04-26T01:14:11.802Z,101725.09
2023-04-26T01:16:39.386Z,101732.19
2023-04-26T01:19:13.015Z,101725.97
2023-04-26T01:21:40.632Z,101723.31
2023-04-26T01:24:09.754Z,101729.47
2023-04-26T01:26:37.014Z,101732.19
2023-04-26T01:29:13.882Z,101734.81
2023-04-26T01:31:40.427Z,101728.56
2023-04-26T01:34:07.106Z,101744.56
2023-04-26T01:36:33.741Z,101738.34
2023-04-26T01:39:00.429Z,101744.63
2023-04-26T01:41:27.103Z,101744.72
2023-04-26T01:43:53.830Z,101737.47
2023-04-26T01:46:20.698Z,101738.34
2023-04-26T01:48:47.381Z,101733.91
2023-04-26T01:51:14.376Z,101742.81
2023-04-26T01:53:40.959Z,101745.47
2023-04-26T01:56:07.628Z,101739.22
2023-04-26T01:58:34.167Z,101734.81
2023-04-26T02:01:08.516Z,101740.16
2023-04-26T02:03:35.770Z,101735.69
2023-04-26T02:06:02.673Z,101735.63
2023-04-26T02:08:29.925Z,101734.81
2023-04-26T02:10:56.572Z,101726.81
2023-04-26T02:13:23.194Z,101735.63
2023-04-26T02:15:50.014Z,101731.19
2023-04-26T02:18:17.630Z,101732.09
2023-04-26T02:20:47.980Z,101739.19
2023-04-26T02:23:14.539Z,101739.19
2023-04-26T02:25:42.362Z,101737.38
2023-04-26T02:28:08.911Z,101733.84
2023-04-26T02:30:36.759Z,101735.59
2023-04-26T02:33:03.361Z,101732.06
2023-04-26T02:35:30.049Z,101740.97
2023-04-26T02:37:56.646Z,101738.25
2023-04-26T02:40:23.185Z,101732.91
2023-04-26T02:42:49.774Z,101730.28
2023-04-26T02:45:16.369Z,101732.06
2023-04-26T02:47:42.947Z,101733.78
2023-04-26T02:50:09.924Z,101735.59
2023-04-26T02:52:36.990Z,101749.81
2023-04-26T02:55:04.574Z,101740.00
2023-04-26T02:57:31.908Z,101739.13
2023-04-26T02:59:58.910Z,101724.88
2023-04-26T03:02:26.082Z,101727.53
2023-04-26T03:04:52.796Z,101734.72
2023-04-26T03:07:19.443Z,101723.94
2023-04-26T03:09:46.052Z,101733.69
2023-04-26T03:12:12.602Z,101730.19
2023-04-26T03:14:39.150Z,101728.38
2023-04-26T03:17:06.253Z,101724.88
2023-04-26T03:19:35.163Z,101727.53
2023-04-26T03:22:04.818Z,101719.53
2023-04-26T03:24:31.827Z,101716.81
2023-04-26T03:26:58.373Z,101719.56
2023-04-26T03:29:24.958Z,101718.66
2023-04-26T03:31:51.608Z,101723.16
2023-04-26T03:34:18.160Z,101722.19
2023-04-26T03:36:44.712Z,101719.53
2023-04-26T03:39:11.536Z,101721.34
2023-04-26T03:41:39.656Z,101717.78
2023-04-26T03:44:06.757Z,101717.75
2023-04-26T03:46:33.371Z,101723.03
2023-04-26T03:48:59.992Z,101724.88
2023-04-26T03:51:28.310Z,101720.31
2023-04-26T03:53:55.620Z,101725.59
2023-04-26T03:56:22.198Z,101726.53
2023-04-26T03:58:48.773Z,101727.41
2023-04-26T04:01:15.811Z,101723.91
2023-04-26T04:03:42.769Z,101724.78
2023-04-26T04:06:09.503Z,101730.13
2023-04-26T04:08:36.266Z,101728.31
2023-04-26T04:11:02.912Z,101721.19
2023-04-26T04:13:29.589Z,101724.72
2023-04-26T04:15:56.250Z,101720.31
2023-04-26T04:18:22.832Z,101725.66
2023-04-26T04:20:53.207Z,101739.03
2023-04-26T04:23:19.768Z,101735.41
2023-04-26T04:25:47.556Z,101730.97
2023-04-26T04:28:14.643Z,101721.19
2023-04-26T04:30:43.666Z,101720.28
2023-04-26T04:33:10.429Z,101724.72
2023-04-26T04:35:37.091Z,101726.56
2023-04-26T04:38:04.364Z,101724.72
2023-04-26T04:40:32.200Z,101733.69
2023-04-26T04:43:01.027Z,101730.06
2023-04-26T04:45:28.555Z,101729.25
2023-04-26T04:47:56.311Z,101726.56
2023-04-26T04:50:23.543Z,101732.78
2023-04-26T04:52:50.103Z,101726.53
2023-04-26T04:55:16.761Z,101735.34
2023-04-26T04:57:43.386Z,101731.84
2023-04-26T05:00:10.718Z,101737.25
2023-04-26T05:02:37.801Z,101731.00
2023-04-26T05:05:05.257Z,101733.59
2023-04-26T05:07:32.689Z,101738.06
2023-04-26T05:10:00.126Z,101746.13
2023-04-26T05:12:26.911Z,101746.06
2023-04-26T05:14:53.465Z,101746.94
2023-04-26T05:17:20.219Z,101751.41
2023-04-26T05:19:47.611Z,101745.16
2023-04-26T05:22:18.850Z,101746.00
2023-04-26T05:24:47.123Z,101741.63
2023-04-26T05:27:14.403Z,101756.69
2023-04-26T05:29:41.504Z,101753.16
2023-04-26T05:32:08.238Z,101756.63
2023-04-26T05:34:35.017Z,101753.09
2023-04-26T05:37:01.566Z,101751.31
2023-04-26T05:39:28.258Z,101751.34
2023-04-26T05:41:54.848Z,101754.88
2023-04-26T05:44:21.432Z,101751.28
2023-04-26T05:46:48.026Z,101747.81
2023-04-26T05:49:14.663Z,101746.06
2023-04-26T05:51:41.366Z,101755.81
2023-04-26T05:54:08.144Z,101760.16
2023-04-26T05:56:36.238Z,101763.72
2023-04-26T05:59:02.826Z,101765.50
2023-04-26T06:01:29.400Z,101765.50
2023-04-26T06:03:59.059Z,101761.88
2023-04-26T06:06:28.410Z,101768.22
2023-04-26T06:08:55.076Z,101771.00
2023-04-26T06:11:21.722Z,101767.41
2023-04-26T06:13:48.348Z,101767.41
2023-04-26T06:16:15.266Z,101770.09
2023-04-26T06:18:42.260Z,101769.19
2023-04-26T06:21:12.720Z,101761.19
2023-04-26T06:23:39.287Z,101767.41
2023-04-26T06:26:06.097Z,101761.22
2023-04-26T06:28:32.690Z,101767.47
2023-04-26T06:30:59.251Z,101770.94
2023-04-26T06:33:25.983Z,101772.75
2023-04-26T06:35:52.549Z,101763.81
2023-04-26T06:38:19.225Z,101776.34
2023-04-26T06:40:45.821Z,101775.41
2023-04-26T06:43:12.365Z,101768.34
2023-04-26T06:45:40.058Z,101771.06
2023-04-26T06:48:08.459Z,101776.47
2023-04-26T06:50:38.721Z,101775.56
2023-04-26T06:53:05.299Z,101788.75
2023-04-26T06:55:33.607Z,101783.47
2023-04-26T06:58:00.484Z,101780.81
2023-04-26T07:00:28.034Z,101788.75
2023-04-26T07:02:54.697Z,101785.25
2023-04-26T07:05:21.668Z,101781.69
2023-04-26T07:07:49.672Z,101792.41
2023-04-26T07:10:16.755Z,101788.81
2023-04-26T07:12:45.273Z,101779.00
2023-04-26T07:15:12.255Z,101779.94
2023-04-26T07:17:38.876Z,101783.59
2023-04-26T07:20:10.304Z,101785.38
2023-04-26T07:22:36.847Z,101784.41
2023-04-26T07:25:05.035Z,101787.06
2023-04-26T07:27:31.665Z,101788.81
2023-04-26T07:29:58.215Z,101785.28
2023-04-26T07:32:43.884Z,101792.50
2023-04-26T07:35:16.139Z,101787.94
2023-04-26T07:37:44.237Z,101787.16
2023-04-26T07:40:22.760Z,101800.50
2023-04-26T07:42:49.291Z,101786.28
2023-04-26T07:45:15.952Z,101793.41
2023-04-26T07:47:46.389Z,101796.97
2023-04-26T07:50:13.167Z,101797.88
2023-04-26T07:52:46.046Z,101802.34
2023-04-26T07:55:12.663Z,101797.03
2023-04-26T07:57:39.237Z,101801.53
2023-04-26T08:00:10.322Z,101809.53
2023-04-26T08:02:54.446Z,101813.94
2023-04-26T08:05:22.146Z,101821.09
2023-04-26T08:07:48.825Z,101822.88
2023-04-26T08:10:15.883Z,101817.53
2023-04-26T08:12:42.429Z,101816.56
2023-04-26T08:15:09.582Z,101826.31
2023-04-26T08:17:36.263Z,101829.84
2023-04-26T08:20:08.740Z,101830.78
2023-04-26T08:22:35.770Z,101828.22
2023-04-26T08:25:05.719Z,101837.09
2023-04-26T08:27:34.404Z,101835.28
2023-04-26T08:30:01.876Z,101826.34
2023-04-26T08:32:28.446Z,101833.50
2023-04-26T08:34:56.618Z,101837.03
2023-04-26T08:37:28.065Z,101837.16
2023-04-26T08:40:16.174Z,101844.34
2023-04-26T08:42:45.910Z,101834.66
2023-04-26T08:45:12.565Z,101838.38
2023-04-26T08:47:48.437Z,101830.38
2023-04-26T08:50:18.044Z,101833.03
2023-04-26T08:52:45.170Z,101835.66
2023-04-26T08:55:19.212Z,101846.38
2023-04-26T08:57:54.390Z,101846.31
2023-04-26T09:00:21.493Z,101839.25
2023-04-26T09:02:53.097Z,101837.53
2023-04-26T09:05:24.496Z,101846.38
2023-04-26T09:07:57.722Z,101846.47
2023-04-26T09:10:29.300Z,101841.09
2023-04-26T09:12:58.997Z,101849.16
2023-04-26T09:15:29.622Z,101841.09
2023-04-26T09:17:56.249Z,101850.13
2023-04-26T09:20:31.056Z,101841.19
2023-04-26T09:23:11.710Z,101844.72
2023-04-26T09:25:38.345Z,101848.28
2023-04-26T09:28:25.121Z,101851.91
2023-04-26T09:30:51.779Z,101851.94
2023-04-26T09:33:19.506Z,101849.31
2023-04-26T09:35:48.054Z,101846.66
2023-04-26T09:41:02.239Z,101851.13
2023-04-26T09:43:37.545Z,101850.19
2023-04-26T09:46:07.209Z,101851.94
2023-04-26T09:48:34.720Z,101851.03
2023-04-26T09:51:09.335Z,101860.88
2023-04-26T09:53:52.094Z,101860.88
2023-04-26T09:56:27.099Z,101857.34
2023-04-26T09:58:58.154Z,101855.56
2023-04-26T10:01:31.326Z,101850.19
2023-04-26T10:04:04.376Z,101855.53
2023-04-26T10:06:51.319Z,101859.16
2023-04-26T10:09:18.468Z,101863.59
2023-04-26T10:11:45.072Z,101858.25
2023-04-26T10:14:13.774Z,101857.38
2023-04-26T10:16:42.237Z,101869.84
2023-04-26T10:19:12.865Z,101872.53
2023-04-26T10:21:45.413Z,101873.38
2023-04-26T10:24:17.128Z,101867.16
2023-04-26T10:26:52.778Z,101875.19
2023-04-26T10:29:20.672Z,101866.25
2023-04-26T10:32:02.256Z,101866.38
2023-04-26T10:34:32.054Z,101868.06
2023-04-26T10:37:11.945Z,101866.38
2023-04-26T10:39:40.432Z,101859.25
2023-04-26T10:42:24.174Z,101869.03
2023-04-26T10:44:58.872Z,101869.94
2023-04-26T10:47:37.091Z,101855.69
2023-04-26T10:50:05.998Z,101857.38
2023-04-26T10:52:33.408Z,101868.16
2023-04-26T10:55:04.038Z,101856.63
2023-04-26T10:57:51.223Z,101865.56
2023-04-26T11:00:31.769Z,101858.44
2023-04-26T11:03:03.230Z,101863.81
2023-04-26T11:05:36.261Z,101862.81
2023-04-26T11:08:15.344Z,101872.75
2023-04-26T11:10:42.511Z,101873.59
2023-04-26T11:13:09.183Z,101877.13
2023-04-26T11:15:38.943Z,101871.78
2023-04-26T11:18:05.890Z,101870.94
2023-04-26T11:20:32.909Z,101865.63
2023-04-26T11:23:00.353Z,101860.25
2023-04-26T11:25:33.843Z,101870.06
2023-04-26T11:28:03.256Z,101862.97
2023-04-26T11:30:31.758Z,101869.16
2023-04-26T11:33:02.838Z,101865.63
2023-04-26T11:35:29.897Z,101866.50
2023-04-26T11:38:03.695Z,101870.06
2023-04-26T11:40:31.664Z,101873.66
2023-04-26T11:43:04.966Z,101868.38
2023-04-26T11:45:34.695Z,101871.00
2023-04-26T11:48:02.379Z,101861.22
2023-04-26T11:50:30.978Z,101873.72
2023-04-26T11:52:59.982Z,101864.81
2023-04-26T11:55:34.224Z,101874.66
2023-04-26T11:58:02.703Z,101866.59
2023-04-26T12:00:31.745Z,101873.75
2023-04-26T12:03:07.110Z,101877.31
2023-04-26T12:05:34.043Z,101873.78
2023-04-26T12:08:00.863Z,101869.34
2023-04-26T12:10:31.405Z,101873.78
2023-04-26T12:13:04.043Z,101873.78
2023-04-26T12:15:32.477Z,101868.41
2023-04-26T12:18:12.283Z,101875.56
2023-04-26T12:20:48.890Z,101876.47
2023-04-26T12:23:16.713Z,101874.63
2023-04-26T12:25:57.082Z,101875.59
2023-04-26T12:28:24.427Z,101873.84
2023-04-26T12:30:51.380Z,101872.94
2023-04-26T12:33:27.146Z,101877.44
2023-04-26T12:36:01.599Z,101876.50
2023-04-26T12:38:28.277Z,101885.44
2023-04-26T12:40:57.772Z,101883.63
2023-04-26T12:43:26.252Z,101883.63
2023-04-26T12:45:52.941Z,101889.88
2023-04-26T12:48:19.612Z,101889.88
2023-04-26T12:50:46.523Z,101889.88
2023-04-26T12:53:18.291Z,101887.19
2023-04-26T12:55:45.046Z,101896.09
2023-04-26T12:58:11.852Z,101888.06
2023-04-26T13:00:38.606Z,101893.44
2023-04-26T13:03:05.297Z,101892.53
2023-04-26T13:05:36.078Z,101895.22
2023-04-26T13:08:07.973Z,101895.28
2023-04-26T13:10:41.302Z,101891.69
2023-04-26T13:13:10.589Z,101895.25
2023-04-26T13:15:41.233Z,101885.44
2023-04-26T13:18:08.041Z,101885.44
2023-04-26T13:20:36.957Z,101884.59
2023-04-26T13:23:09.692Z,101900.63
2023-04-26T13:25:36.332Z,101895.28
2023-04-26T13:28:03.184Z,101901.53
2023-04-26T13:30:29.801Z,101899.69
2023-04-26T13:32:58.193Z,101897.06
2023-04-26T13:35:26.654Z,101897.94
2023-04-26T13:37:53.394Z,101902.38
2023-04-26T13:40:22.133Z,101908.59
2023-04-26T13:42:48.740Z,101909.50
2023-04-26T13:45:20.020Z,101912.16
2023-04-26T13:47:46.591Z,101911.28
2023-04-26T13:50:13.139Z,101913.94
2023-04-26T13:52:42.608Z,101919.28
2023-04-26T13:55:09.197Z,101919.28
2023-04-26T13:57:36.082Z,101913.94
2023-04-26T14:00:03.881Z,101916.63
2023-04-26T14:02:30.545Z,101910.41
2023-04-26T14:04:57.505Z,101918.41
2023-04-26T14:07:25.293Z,101917.50
2023-04-26T14:09:52.089Z,101913.03
2023-04-26T14:12:18.635Z,101914.84
2023-04-26T14:14:46.400Z,101913.91
2023-04-26T14:17:12.967Z,101916.63
2023-04-26T14:19:46.479Z,101916.63
2023-04-26T14:22:17.849Z,101919.28
2023-04-26T14:24:44.494Z,101916.63
2023-04-26T14:27:17.010Z,101921.94
2023-04-26T14:29:49.460Z,101931.75
2023-04-26T14:32:16.248Z,101921.94
2023-04-26T14:34:48.329Z,101924.63
2023-04-26T14:37:15.266Z,101933.53
2023-04-26T14:39:45.369Z,101928.22
2023-04-26T14:42:14.717Z,101944.22
2023-04-26T14:44:46.414Z,101939.75
2023-04-26T14:47:12.993Z,101956.69
2023-04-26T14:49:39.576Z,101939.72
2023-04-26T14:52:06.136Z,101934.38
2023-04-26T14:54:39.902Z,101941.56
2023-04-26T14:57:09.259Z,101930.88
2023-04-26T14:59:38.957Z,101929.09
2023-04-26T15:02:08.730Z,101938.00
2023-04-26T15:04:37.791Z,101930.84
2023-04-26T15:07:24.473Z,101921.06
2023-04-26T15:09:57.732Z,101930.00
2023-04-26T15:12:24.314Z,101926.41
2023-04-26T15:14:51.144Z,101925.53
2023-04-26T15:17:20.532Z,101930.88
2023-04-26T15:22:39.102Z,101923.75
2023-04-26T15:25:06.525Z,101921.09
2023-04-26T15:27:39.048Z,101911.25
2023-04-26T15:30:09.518Z,101915.72
2023-04-26T15:32:36.088Z,101913.03
2023-04-26T15:35:05.566Z,101914.81
2023-04-26T15:37:32.201Z,101902.34
2023-04-26T15:39:58.746Z,101915.75
2023-04-26T15:42:25.436Z,101913.03
2023-04-26T15:44:52.014Z,101909.44
2023-04-26T15:47:18.632Z,101916.59
2023-04-26T15:49:45.292Z,101914.81
2023-04-26T15:52:11.991Z,101921.06
2023-04-26T15:54:38.569Z,101918.38
2023-04-26T15:57:05.147Z,101918.38
2023-04-26T15:59:38.646Z,101921.97
2023-04-26T16:02:05.957Z,101923.75
2023-04-26T16:04:32.838Z,101916.59
2023-04-26T16:06:59.613Z,101929.94
2023-04-26T16:09:30.673Z,101923.75
2023-04-26T16:11:57.300Z,101919.25
2023-04-26T16:14:23.853Z,101927.28
2023-04-26T16:16:50.503Z,101921.94
2023-04-26T16:19:22.805Z,101924.63
2023-04-26T16:21:57.804Z,101922.84
2023-04-26T16:24:32.901Z,101921.91
2023-04-26T16:27:00.757Z,101922.81
2023-04-26T16:29:27.798Z,101930.84
2023-04-26T16:31:54.418Z,101929.06
2023-04-26T16:34:21.829Z,101921.03
2023-04-26T16:36:55.152Z,101923.72
2023-04-26T16:39:24.497Z,101929.09
2023-04-26T16:41:53.674Z,101929.94
2023-04-26T16:44:20.646Z,101923.75
2023-04-26T16:46:47.518Z,101917.47
2023-04-26T16:49:17.153Z,101918.34
2023-04-26T16:51:53.367Z,101921.06
2023-04-26T16:54:21.786Z,101934.44
2023-04-26T16:56:48.368Z,101931.75
2023-04-26T16:59:14.966Z,101927.28
2023-04-26T17:01:41.603Z,101922.84
2023-04-26T17:04:09.162Z,101929.09
2023-04-26T17:06:40.169Z,101925.53
2023-04-26T17:09:08.233Z,101935.34
2023-04-26T17:11:37.201Z,101931.75
2023-04-26T17:14:04.567Z,101932.69
2023-04-26T17:16:31.265Z,101933.56
2023-04-26T17:18:58.594Z,101927.31
2023-04-26T17:21:25.470Z,101934.44
2023-04-26T17:24:00.668Z,101930.00
2023-04-26T17:26:37.596Z,101936.22
2023-04-26T17:29:04.443Z,101934.47
2023-04-26T17:31:31.869Z,101939.81
2023-04-26T17:33:58.435Z,101930.91
2023-04-26T17:36:24.978Z,101935.34
2023-04-26T17:38:51.531Z,101937.13
2023-04-26T17:41:18.177Z,101935.34
2023-04-26T17:43:45.382Z,101936.22
2023-04-26T17:46:12.077Z,101938.03
2023-04-26T17:48:41.584Z,101939.78
2023-04-26T17:51:08.189Z,101938.03
2023-04-26T17:53:34.812Z,101944.25
2023-04-26T17:56:01.770Z,101939.78
2023-04-26T17:58:28.320Z,101944.25
2023-04-26T18:00:54.934Z,101952.28
2023-04-26T18:03:21.733Z,101954.06
2023-04-26T18:05:54.205Z,101969.22
2023-04-26T18:08:21.421Z,101971.00
2023-04-26T18:10:48.686Z,101952.28
2023-04-26T18:13:16.121Z,101963.91
2023-04-26T18:15:42.694Z,101957.63
2023-04-26T18:18:12.342Z,101966.53
2023-04-26T18:20:40.539Z,101960.34
2023-04-26T18:23:16.867Z,101966.53
2023-04-26T18:25:48.898Z,101962.06
2023-04-26T18:28:26.088Z,101964.75
2023-04-26T18:30:59.491Z,101968.34
2023-04-26T18:33:26.841Z,101962.94
2023-04-26T18:35:53.475Z,101957.59
2023-04-26T18:38:20.958Z,101959.41
2023-04-26T18:40:49.477Z,101971.81
2023-04-26T18:43:16.093Z,101977.22
2023-04-26T18:45:42.699Z,101975.41
2023-04-26T18:48:09.337Z,101981.69
2023-04-26T18:50:36.051Z,101981.69
2023-04-26T18:53:05.503Z,101987.00
2023-04-26T18:55:32.083Z,101980.72
2023-04-26T18:57:58.630Z,101986.09
2023-04-26T19:00:25.322Z,101983.41
2023-04-26T19:02:52.179Z,101982.53
2023-04-26T19:05:19.018Z,101982.53
2023-04-26T19:07:51.211Z,101981.63
2023-04-26T19:10:17.743Z,101984.28
2023-04-26T19:12:44.343Z,101988.78
2023-04-26T19:15:13.889Z,101986.09
2023-04-26T19:17:43.896Z,101984.28
2023-04-26T19:20:13.185Z,101986.06
2023-04-26T19:22:41.848Z,101984.31
2023-04-26T19:25:09.098Z,101986.03
2023-04-26T19:27:35.690Z,101979.81
2023-04-26T19:30:02.242Z,101987.78
2023-04-26T19:32:28.870Z,101993.13
2023-04-26T19:34:55.483Z,101994.94
2023-04-26T19:37:22.037Z,101986.00
2023-04-26T19:39:48.667Z,101995.69
2023-04-26T19:42:16.016Z,101996.59
2023-04-26T19:44:45.160Z,101994.72
2023-04-26T19:47:11.773Z,101993.81
2023-04-26T19:49:38.409Z,101992.91
2023-04-26T19:52:04.966Z,101998.22
2023-04-26T19:54:32.336Z,102007.16
2023-04-26T19:56:59.131Z,102000.81
2023-04-26T19:59:25.715Z,102004.34
2023-04-26T20:01:53.888Z,102007.03
2023-04-26T20:04:23.632Z,102006.97
2023-04-26T20:06:50.296Z,102008.72
2023-04-26T20:09:17.112Z,102003.31
2023-04-26T20:11:43.716Z,102012.25
2023-04-26T20:14:10.257Z,102019.31
2023-04-26T20:16:39.686Z,102028.28
2023-04-26T20:19:06.689Z,102037.13
2023-04-26T20:21:39.672Z,102026.44
2023-04-26T20:24:06.951Z,102019.28
2023-04-26T20:26:33.665Z,102019.25
2023-04-26T20:29:00.444Z,102021.84
2023-04-26T20:31:27.583Z,102016.50
2023-04-26T20:33:54.161Z,102024.56
2023-04-26T20:36:22.186Z,102020.09
2023-04-26T20:38:48.802Z,102014.72
2023-04-26T20:41:15.551Z,102011.09
2023-04-26T20:43:42.181Z,102017.31
2023-04-26T20:46:08.809Z,102019.06
2023-04-26T20:48:35.554Z,102018.22
2023-04-26T20:51:07.005Z,102005.69
2023-04-26T20:53:33.578Z,102011.84
2023-04-26T20:56:00.193Z,102007.38
2023-04-26T20:58:26.979Z,102008.31
2023-04-26T21:00:55.349Z,102010.06
2023-04-26T21:03:22.927Z,102018.00
2023-04-26T21:05:51.776Z,102012.66
2023-04-26T21:08:18.352Z,102014.44
2023-04-26T21:10:44.896Z,102011.72
2023-04-26T21:13:13.172Z,102011.78
2023-04-26T21:15:44.055Z,102011.78
2023-04-26T21:18:10.636Z,102015.31
2023-04-26T21:20:38.748Z,102011.72
2023-04-26T21:23:07.910Z,102009.91
2023-04-26T21:25:34.525Z,102013.53
2023-04-26T21:28:01.113Z,102009.84
2023-04-26T21:30:27.674Z,102013.41
2023-04-26T21:32:54.298Z,102013.41
2023-04-26T21:35:30.440Z,102015.19
2023-04-26T21:37:56.986Z,102013.38
2023-04-26T21:40:26.202Z,102018.66
2023-04-26T21:43:04.051Z,102024.00
2023-04-26T21:45:34.118Z,102018.56
2023-04-26T21:48:00.782Z,102020.38
2023-04-26T21:50:27.450Z,102022.13
2023-04-26T21:52:54.056Z,102017.78
2023-04-26T21:55:20.616Z,102021.31
2023-04-26T21:57:47.177Z,102022.13
2023-04-26T22:00:13.910Z,102024.81
2023-04-26T22:02:42.282Z,102022.19
2023-04-26T22:05:09.130Z,102024.00
2023-04-26T22:07:35.738Z,102019.47
2023-04-26T22:10:02.889Z,102020.38
2023-04-26T22:12:34.890Z,102023.03
2023-04-26T22:15:03.355Z,102031.03
2023-04-26T22:17:29.947Z,102039.06
2023-04-26T22:19:56.570Z,102034.59
2023-04-26T22:22:26.971Z,102034.53
2023-04-26T22:24:53.517Z,102042.53
2023-04-26T22:27:20.157Z,102044.34
2023-04-26T22:29:46.758Z,102045.19
2023-04-26T22:32:13.466Z,102045.97
2023-04-26T22:34:42.335Z,102039.78
2023-04-26T22:37:20.328Z,102036.19
2023-04-26T22:39:54.781Z,102039.69
2023-04-26T22:42:23.697Z,102044.94
2023-04-26T22:44:56.726Z,102050.25
2023-04-26T22:47:23.355Z,102047.63
2023-04-26T22:49:49.913Z,102041.31
2023-04-26T22:52:30.426Z,102052.06
2023-04-26T22:55:01.108Z,102045.78
2023-04-26T22:57:29.322Z,102039.59
2023-04-26T23:00:02.638Z,102045.09
2023-04-26T23:02:29.362Z,102045.03
2023-04-26T23:04:56.710Z,102048.53
2023-04-26T23:07:23.527Z,102054.84
2023-04-26T23:09:52.664Z,102045.84
2023-04-26T23:12:25.983Z,102046.66
2023-04-26T23:14:58.935Z,102055.53
2023-04-26T23:17:26.667Z,102051.13
2023-04-26T23:19:58.589Z,102055.50
2023-04-26T23:22:30.043Z,102057.34
2023-04-26T23:25:02.918Z,102059.06
2023-04-26T23:27:29.477Z,102071.50
2023-04-26T23:29:59.077Z,102075.06
2023-04-26T23:32:26.078Z,102082.13
2023-04-26T23:34:52.714Z,102081.41
2023-04-26T23:37:19.315Z,102086.59
2023-04-26T23:39:45.957Z,102082.09
2023-04-26T23:42:15.468Z,102080.28
2023-04-26T23:44:42.010Z,102071.38
2023-04-26T23:47:09.396Z,102067.84
2023-04-26T23:49:36.099Z,102079.28
2023-04-26T23:52:02.677Z,102073.94
2023-04-26T23:54:29.268Z,102076.59
2023-04-26T23:56:55.818Z,102074.88
2023-04-26T23:59:27.037Z,102071.44
